createdAt,value
2017-05-08T00:00:59.114Z,100499.36
2017-05-08T00:03:26.554Z,100504.16
2017-05-08T00:05:53.994Z,100496.23
2017-05-08T00:08:21.445Z,100499.22
2017-05-08T00:10:48.886Z,100507.33
2017-05-08T00:13:16.326Z,100509.36
2017-05-08T00:15:43.792Z,100505.45
2017-05-08T00:18:11.231Z,100503.35
2017-05-08T00:20:38.670Z,100509.45
2017-05-08T00:23:06.127Z,100508.30
2017-05-08T00:25:33.561Z,100509.38
2017-05-08T00:28:01.000Z,100503.25
2017-05-08T00:30:28.454Z,100499.77
2017-05-08T00:32:55.890Z,100510.20
2017-05-08T00:35:23.329Z,100505.34
2017-05-08T00:37:50.794Z,100510.67
2017-05-08T00:40:18.230Z,100509.86
2017-05-08T00:42:45.671Z,100511.59
2017-05-08T00:45:13.128Z,100506.01
2017-05-08T00:47:40.578Z,100506.24
2017-05-08T00:50:08.022Z,100506.05
2017-05-08T00:52:35.470Z,100503.53
2017-05-08T00:55:02.911Z,100498.66
2017-05-08T00:57:30.345Z,100504.99
2017-05-08T00:59:57.797Z,100500.75
2017-05-08T01:02:25.237Z,100496.73
2017-05-08T01:04:52.673Z,100500.56
2017-05-08T01:07:20.129Z,100495.93
2017-05-08T01:09:47.570Z,100495.74
2017-05-08T01:12:15.005Z,100497.92
2017-05-08T01:14:42.448Z,100501.65
2017-05-08T01:17:09.883Z,100506.98
2017-05-08T01:19:37.314Z,100495.88
2017-05-08T01:22:04.770Z,100507.86
2017-05-08T01:24:32.202Z,100509.48
2017-05-08T01:26:59.674Z,100504.08
2017-05-08T01:29:27.147Z,100508.45
2017-05-08T01:31:54.583Z,100508.69
2017-05-08T01:34:22.035Z,100512.13
2017-05-08T01:36:49.482Z,100519.68
2017-05-08T01:39:16.917Z,100516.73
2017-05-08T01:41:44.346Z,100515.47
2017-05-08T01:44:12.486Z,100528.00
2017-05-08T01:46:39.922Z,100520.61
2017-05-08T01:49:07.358Z,100525.09
2017-05-08T01:51:34.819Z,100522.72
2017-05-08T01:54:02.263Z,100523.18
2017-05-08T01:56:29.697Z,100529.34
2017-05-08T01:58:57.192Z,100525.98
2017-05-08T02:01:24.641Z,100533.88
2017-05-08T02:03:52.091Z,100533.95
2017-05-08T02:06:19.549Z,100532.61
2017-05-08T02:08:46.982Z,100532.00
2017-05-08T02:11:14.478Z,100533.19
2017-05-08T02:13:41.939Z,100535.48
2017-05-08T02:16:09.400Z,100534.02
2017-05-08T02:18:36.819Z,100528.31
2017-05-08T02:21:04.279Z,100528.01
2017-05-08T02:23:31.722Z,100525.91
2017-05-08T02:25:59.174Z,100534.94
2017-05-08T02:28:26.630Z,100533.09
2017-05-08T02:30:54.066Z,100530.56
2017-05-08T02:33:21.495Z,100534.94
2017-05-08T02:35:48.962Z,100539.30
2017-05-08T02:38:16.398Z,100534.97
2017-05-08T02:40:43.826Z,100541.55
2017-05-08T02:43:11.412Z,100532.67
2017-05-08T02:45:38.870Z,100527.84
2017-05-08T02:48:06.302Z,100523.62
2017-05-08T02:50:33.753Z,100528.95
2017-05-08T02:53:01.186Z,100530.55
2017-05-08T02:55:29.611Z,100517.42
2017-05-08T02:57:57.074Z,100531.31
2017-05-08T03:00:24.870Z,100534.53
2017-05-08T03:02:52.578Z,100539.88
2017-05-08T03:05:20.040Z,100538.84
2017-05-08T03:07:47.470Z,100542.78
2017-05-08T03:10:14.902Z,100545.99
2017-05-08T03:12:42.375Z,100540.28
2017-05-08T03:15:09.814Z,100542.99
2017-05-08T03:17:37.250Z,100546.28
2017-05-08T03:20:04.703Z,100542.37
2017-05-08T03:22:32.138Z,100543.67
2017-05-08T03:24:59.571Z,100546.88
2017-05-08T03:27:27.027Z,100546.41
2017-05-08T03:29:54.459Z,100544.84
2017-05-08T03:32:21.889Z,100540.50
2017-05-08T03:34:49.342Z,100549.42
2017-05-08T03:37:16.781Z,100550.17
2017-05-08T03:39:44.406Z,100549.67
2017-05-08T03:42:11.877Z,100556.93
2017-05-08T03:44:39.306Z,100553.22
2017-05-08T03:47:06.735Z,100555.69
2017-05-08T03:49:34.190Z,100553.80
2017-05-08T03:52:01.622Z,100561.81
2017-05-08T03:54:29.090Z,100555.60
2017-05-08T03:56:56.547Z,100560.80
2017-05-08T03:59:23.983Z,100566.36
2017-05-08T04:01:51.423Z,100571.67
2017-05-08T04:04:18.902Z,100577.73
2017-05-08T04:06:46.338Z,100576.75
2017-05-08T04:09:13.770Z,100576.99
2017-05-08T04:11:41.230Z,100578.39
2017-05-08T04:14:08.667Z,100579.31
2017-05-08T04:16:36.103Z,100593.20
2017-05-08T04:19:03.552Z,100594.42
2017-05-08T04:21:30.991Z,100599.44
2017-05-08T04:23:58.418Z,100596.95
2017-05-08T04:26:25.870Z,100603.31
2017-05-08T04:28:53.312Z,100599.73
2017-05-08T04:31:20.751Z,100602.39
2017-05-08T04:33:48.218Z,100605.61
2017-05-08T04:36:15.646Z,100600.02
2017-05-08T04:38:43.082Z,100607.97
2017-05-08T04:41:10.530Z,100614.44
2017-05-08T04:43:37.961Z,100608.56
2017-05-08T04:46:05.390Z,100623.17
2017-05-08T04:48:32.846Z,100622.97
2017-05-08T04:51:00.278Z,100623.08
2017-05-08T04:53:27.722Z,100625.30
2017-05-08T04:55:55.174Z,100633.48
2017-05-08T04:58:22.606Z,100632.12
2017-05-08T05:00:50.037Z,100630.97
2017-05-08T05:03:17.494Z,100631.82
2017-05-08T05:05:44.946Z,100628.05
2017-05-08T05:08:12.391Z,100637.47
2017-05-08T05:10:39.919Z,100634.09
2017-05-08T05:13:07.383Z,100639.48
2017-05-08T05:15:34.826Z,100644.25
2017-05-08T05:18:02.293Z,100639.92
2017-05-08T05:20:29.757Z,100647.14
2017-05-08T05:22:57.207Z,100646.63
2017-05-08T05:25:24.666Z,100644.93
2017-05-08T05:27:52.107Z,100647.58
2017-05-08T05:30:19.542Z,100652.02
2017-05-08T05:32:46.990Z,100661.86
2017-05-08T05:35:14.578Z,100660.20
2017-05-08T05:37:42.022Z,100666.33
2017-05-08T05:40:09.488Z,100673.38
2017-05-08T05:42:36.993Z,100672.86
2017-05-08T05:45:04.430Z,100677.72
2017-05-08T05:47:31.891Z,100672.37
2017-05-08T05:49:59.327Z,100682.62
2017-05-08T05:52:26.758Z,100677.44
2017-05-08T05:54:54.210Z,100683.57
2017-05-08T05:57:21.642Z,100689.81
2017-05-08T05:59:49.074Z,100681.77
2017-05-08T06:02:16.534Z,100690.23
2017-05-08T06:04:43.974Z,100702.28
2017-05-08T06:07:11.430Z,100698.30
2017-05-08T06:09:38.886Z,100697.45
2017-05-08T06:12:06.330Z,100702.09
2017-05-08T06:14:33.767Z,100694.06
2017-05-08T06:17:01.218Z,100707.48
2017-05-08T06:19:28.650Z,100704.53
2017-05-08T06:21:56.090Z,100704.00
2017-05-08T06:24:23.552Z,100712.03
2017-05-08T06:26:50.994Z,100717.77
2017-05-08T06:29:18.427Z,100714.06
2017-05-08T06:31:45.886Z,100716.81
2017-05-08T06:34:13.321Z,100715.72
2017-05-08T06:36:40.750Z,100723.02
2017-05-08T06:39:08.226Z,100721.96
2017-05-08T06:41:35.657Z,100725.55
2017-05-08T06:44:03.086Z,100734.64
2017-05-08T06:46:30.538Z,100738.02
2017-05-08T06:48:57.984Z,100734.00
2017-05-08T06:51:25.425Z,100733.38
2017-05-08T06:53:52.875Z,100727.45
2017-05-08T06:56:20.306Z,100733.06
2017-05-08T06:58:47.748Z,100726.93
2017-05-08T07:01:15.201Z,100738.87
2017-05-08T07:03:42.631Z,100743.28
2017-05-08T07:06:10.068Z,100749.52
2017-05-08T07:08:37.517Z,100736.84
2017-05-08T07:11:04.951Z,100745.05
2017-05-08T07:13:32.383Z,100750.34
2017-05-08T07:15:59.834Z,100748.02
2017-05-08T07:18:27.267Z,100752.56
2017-05-08T07:20:54.702Z,100751.19
2017-05-08T07:23:22.163Z,100748.77
2017-05-08T07:25:49.600Z,100746.44
2017-05-08T07:28:17.029Z,100747.70
2017-05-08T07:30:44.474Z,100754.02
2017-05-08T07:33:11.907Z,100757.30
2017-05-08T07:35:39.355Z,100751.47
2017-05-08T07:38:06.787Z,100760.25
2017-05-08T07:40:34.218Z,100752.92
2017-05-08T07:43:01.663Z,100763.91
2017-05-08T07:45:29.110Z,100763.81
2017-05-08T07:47:56.539Z,100764.76
2017-05-08T07:50:23.994Z,100770.64
2017-05-08T07:52:51.431Z,100772.13
2017-05-08T07:55:18.918Z,100765.14
2017-05-08T07:57:46.369Z,100768.70
2017-05-08T08:00:13.800Z,100770.80
2017-05-08T08:02:41.243Z,100773.73
2017-05-08T08:05:08.706Z,100775.52
2017-05-08T08:07:36.143Z,100777.62
2017-05-08T08:10:03.574Z,100784.88
2017-05-08T08:12:31.026Z,100774.70
2017-05-08T08:14:58.460Z,100779.95
2017-05-08T08:17:25.885Z,100786.72
2017-05-08T08:19:53.352Z,100781.31
2017-05-08T08:22:20.790Z,100786.81
2017-05-08T08:24:48.223Z,100784.17
2017-05-08T08:27:15.683Z,100791.89
2017-05-08T08:29:43.110Z,100784.91
2017-05-08T08:32:10.542Z,100788.47
2017-05-08T08:34:37.987Z,100796.63
2017-05-08T08:37:05.455Z,100791.54
2017-05-08T08:39:32.889Z,100798.63
2017-05-08T08:42:00.341Z,100794.17
2017-05-08T08:44:27.770Z,100800.10
2017-05-08T08:46:55.202Z,100792.80
2017-05-08T08:49:22.661Z,100798.41
2017-05-08T08:51:50.098Z,100793.55
2017-05-08T08:54:17.534Z,100798.20
2017-05-08T08:56:45.025Z,100803.50
2017-05-08T08:59:12.454Z,100799.36
2017-05-08T09:01:39.893Z,100806.14
2017-05-08T09:04:07.354Z,100805.94
2017-05-08T09:06:36.785Z,100807.31
2017-05-08T09:09:04.839Z,100807.31
2017-05-08T09:11:32.302Z,100801.59
2017-05-08T09:13:59.742Z,100803.17
2017-05-08T09:16:27.182Z,100809.63
2017-05-08T09:18:54.651Z,100816.19
2017-05-08T09:21:22.094Z,100818.73
2017-05-08T09:23:49.530Z,100820.84
2017-05-08T09:26:16.973Z,100816.93
2017-05-08T09:28:44.403Z,100819.16
2017-05-08T09:31:11.842Z,100823.50
2017-05-08T09:33:39.297Z,100823.30
2017-05-08T09:36:06.730Z,100832.63
2017-05-08T09:38:34.167Z,100835.59
2017-05-08T09:41:01.645Z,100832.12
2017-05-08T09:43:29.078Z,100841.77
2017-05-08T09:45:56.510Z,100835.85
2017-05-08T09:48:23.967Z,100836.91
2017-05-08T09:50:51.401Z,100838.44
2017-05-08T09:53:18.834Z,100837.74
2017-05-08T09:55:46.290Z,100840.81
2017-05-08T09:58:13.717Z,100847.84
2017-05-08T10:00:41.142Z,100844.56
2017-05-08T10:03:08.598Z,100847.42
2017-05-08T10:05:36.033Z,100841.95
2017-05-08T10:08:04.386Z,100841.84
2017-05-08T10:10:31.837Z,100843.53
2017-05-08T10:12:59.293Z,100851.89
2017-05-08T10:15:26.730Z,100854.53
2017-05-08T10:17:54.188Z,100856.47
2017-05-08T10:20:21.626Z,100860.59
2017-05-08T10:22:49.058Z,100860.06
2017-05-08T10:25:16.526Z,100864.40
2017-05-08T10:27:43.962Z,100865.77
2017-05-08T10:30:11.392Z,100853.29
2017-05-08T10:32:38.851Z,100861.02
2017-05-08T10:35:07.242Z,100866.20
2017-05-08T10:37:34.678Z,100855.44
2017-05-08T10:40:02.139Z,100867.28
2017-05-08T10:42:29.581Z,100860.52
2017-05-08T10:44:57.013Z,100863.16
2017-05-08T10:47:24.473Z,100865.67
2017-05-08T10:49:51.898Z,100858.58
2017-05-08T10:52:19.341Z,100859.95
2017-05-08T10:54:46.794Z,100862.07
2017-05-08T10:57:14.227Z,100860.59
2017-05-08T10:59:41.659Z,100862.60
2017-05-08T11:02:09.114Z,100865.04
2017-05-08T11:04:36.550Z,100862.92
2017-05-08T11:07:03.981Z,100858.98
2017-05-08T11:09:31.438Z,100858.03
2017-05-08T11:11:58.879Z,100859.62
2017-05-08T11:14:26.314Z,100858.66
2017-05-08T11:16:53.770Z,100864.14
2017-05-08T11:19:21.215Z,100863.29
2017-05-08T11:21:48.643Z,100864.66
2017-05-08T11:24:16.098Z,100866.04
2017-05-08T11:26:43.530Z,100861.98
2017-05-08T11:29:10.961Z,100861.66
2017-05-08T11:31:38.413Z,100863.78
2017-05-08T11:34:05.841Z,100862.94
2017-05-08T11:36:33.273Z,100865.80
2017-05-08T11:39:00.733Z,100869.08
2017-05-08T11:41:28.165Z,100861.34
2017-05-08T11:43:55.582Z,100861.34
2017-05-08T11:46:23.035Z,100854.89
2017-05-08T11:48:50.466Z,100859.44
2017-05-08T11:51:17.902Z,100856.69
2017-05-08T11:53:45.353Z,100857.75
2017-05-08T11:56:12.782Z,100864.31
2017-05-08T11:58:40.219Z,100854.16
2017-05-08T12:01:07.671Z,100861.14
2017-05-08T12:03:35.102Z,100864.31
2017-05-08T12:06:02.534Z,100860.71
2017-05-08T12:08:29.990Z,100863.67
2017-05-08T12:10:57.425Z,100858.38
2017-05-08T12:13:24.854Z,100859.97
2017-05-08T12:15:52.298Z,100867.91
2017-05-08T12:18:19.718Z,100866.92
2017-05-08T12:20:47.190Z,100861.52
2017-05-08T12:23:14.633Z,100862.42
2017-05-08T12:25:42.057Z,100867.61
2017-05-08T12:28:09.487Z,100867.78
2017-05-08T12:30:36.945Z,100869.57
2017-05-08T12:33:04.377Z,100865.86
2017-05-08T12:35:31.805Z,100864.27
2017-05-08T12:37:59.250Z,100869.98
2017-05-08T12:40:26.670Z,100877.15
2017-05-08T12:42:54.102Z,100872.91
2017-05-08T12:45:21.558Z,100872.73
2017-05-08T12:47:48.986Z,100869.98
2017-05-08T12:50:16.421Z,100878.25
2017-05-08T12:52:44.781Z,100877.34
2017-05-08T12:55:12.217Z,100875.87
2017-05-08T12:57:39.678Z,100870.83
2017-05-08T13:00:07.137Z,100870.20
2017-05-08T13:02:34.593Z,100874.33
2017-05-08T13:05:02.031Z,100873.09
2017-05-08T13:07:29.542Z,100870.87
2017-05-08T13:09:57.000Z,100870.77
2017-05-08T13:12:32.774Z,100870.09
2017-05-08T13:15:00.264Z,100865.74
2017-05-08T13:17:28.653Z,100866.03
2017-05-08T13:19:56.126Z,100866.02
2017-05-08T13:22:23.555Z,100863.16
2017-05-08T13:24:50.991Z,100862.16
2017-05-08T13:27:19.400Z,100864.28
2017-05-08T13:29:46.841Z,100862.90
2017-05-08T13:32:16.270Z,100858.55
2017-05-08T13:34:43.730Z,100859.08
2017-05-08T13:37:24.125Z,100853.22
2017-05-08T13:39:55.350Z,100859.45
2017-05-08T13:42:22.787Z,100857.02
2017-05-08T13:44:50.217Z,100854.47
2017-05-08T13:47:17.649Z,100851.92
2017-05-08T13:49:45.074Z,100855.09
2017-05-08T13:52:12.518Z,100849.77
2017-05-08T13:54:39.965Z,100854.56
2017-05-08T13:57:07.403Z,100849.27
2017-05-08T13:59:48.916Z,100846.73
2017-05-08T14:02:16.366Z,100848.63
2017-05-08T14:04:43.797Z,100849.16
2017-05-08T14:07:11.248Z,100858.66
2017-05-08T14:09:38.673Z,100842.23
2017-05-08T14:12:06.106Z,100847.30
2017-05-08T14:14:33.542Z,100846.62
2017-05-08T14:17:00.978Z,100850.63
2017-05-08T14:19:28.422Z,100847.97
2017-05-08T14:22:03.573Z,100845.94
2017-05-08T14:24:31.051Z,100846.55
2017-05-08T14:27:02.930Z,100848.34
2017-05-08T14:29:30.383Z,100850.94
2017-05-08T14:31:57.824Z,100849.33
2017-05-08T14:34:25.253Z,100850.69
2017-05-08T14:36:52.683Z,100849.05
2017-05-08T14:39:20.545Z,100851.25
2017-05-08T14:41:47.979Z,100853.57
2017-05-08T14:44:15.405Z,100847.16
2017-05-08T14:46:42.849Z,100854.77
2017-05-08T14:49:10.287Z,100850.20
2017-05-08T14:51:37.747Z,100851.57
2017-05-08T14:54:05.181Z,100860.91
2017-05-08T14:56:32.727Z,100859.86
2017-05-08T14:59:00.250Z,100852.89
2017-05-08T15:01:27.691Z,100854.01
2017-05-08T15:03:55.117Z,100849.58
2017-05-08T15:06:22.558Z,100848.84
2017-05-08T15:08:49.988Z,100853.20
2017-05-08T15:11:17.486Z,100849.31
2017-05-08T15:13:44.941Z,100850.70
2017-05-08T15:16:13.342Z,100844.88
2017-05-08T15:18:40.794Z,100840.42
2017-05-08T15:21:08.234Z,100842.95
2017-05-08T15:23:35.715Z,100840.27
2017-05-08T15:26:03.190Z,100843.63
2017-05-08T15:28:30.671Z,100842.97
2017-05-08T15:30:58.117Z,100842.49
2017-05-08T15:33:25.586Z,100839.61
2017-05-08T15:35:56.900Z,100842.88
2017-05-08T15:38:24.358Z,100844.68
2017-05-08T15:40:51.826Z,100845.84
2017-05-08T15:43:19.258Z,100842.34
2017-05-08T15:45:47.654Z,100854.44
2017-05-08T15:48:15.134Z,100844.91
2017-05-08T15:50:42.594Z,100848.52
2017-05-08T15:53:10.038Z,100845.05
2017-05-08T15:58:34.456Z,100852.95
2017-05-08T16:01:01.931Z,100850.72
2017-05-08T16:03:29.394Z,100849.03
2017-05-08T16:05:56.867Z,100849.36
2017-05-08T16:08:30.339Z,100850.64
2017-05-08T16:10:57.790Z,100844.92
2017-05-08T16:13:25.254Z,100850.02
2017-05-08T16:15:56.271Z,100854.15
2017-05-08T16:18:23.786Z,100850.44
2017-05-08T16:20:51.233Z,100851.86
2017-05-08T16:23:18.726Z,100851.02
2017-05-08T16:25:47.610Z,100848.16
2017-05-08T16:28:22.930Z,100848.05
2017-05-08T16:30:50.370Z,100848.58
2017-05-08T16:33:17.841Z,100854.63
2017-05-08T16:35:46.268Z,100857.48
2017-05-08T16:38:17.199Z,100860.88
2017-05-08T16:40:44.703Z,100862.06
2017-05-08T16:43:12.213Z,100856.98
2017-05-08T16:45:47.560Z,100857.87
2017-05-08T16:48:15.046Z,100859.59
2017-05-08T16:50:42.513Z,100862.05
2017-05-08T16:53:09.966Z,100867.25
2017-05-08T16:55:37.492Z,100862.82
2017-05-08T16:58:04.999Z,100860.08
2017-05-08T17:00:32.473Z,100867.10
2017-05-08T17:02:59.915Z,100872.52
2017-05-08T17:05:27.360Z,100873.79
2017-05-08T17:08:05.776Z,100876.98
2017-05-08T17:10:33.303Z,100881.01
2017-05-08T17:13:00.738Z,100885.92
2017-05-08T17:15:29.318Z,100884.13
2017-05-08T17:17:56.767Z,100879.73
2017-05-08T17:20:24.229Z,100884.92
2017-05-08T17:22:51.734Z,100885.03
2017-05-08T17:25:19.193Z,100889.31
2017-05-08T17:27:46.675Z,100885.19
2017-05-08T17:30:14.130Z,100885.61
2017-05-08T17:32:41.566Z,100890.30
2017-05-08T17:35:09.043Z,100884.91
2017-05-08T17:37:36.526Z,100894.12
2017-05-08T17:40:04.040Z,100896.06
2017-05-08T17:42:31.510Z,100897.75
2017-05-08T17:44:59.023Z,100895.53
2017-05-08T17:47:26.503Z,100898.31
2017-05-08T17:49:53.939Z,100906.89
2017-05-08T17:52:21.386Z,100902.33
2017-05-08T17:54:48.813Z,100909.10
2017-05-08T17:57:16.242Z,100915.59
2017-05-08T17:59:43.678Z,100907.13
2017-05-08T18:02:11.103Z,100919.28
2017-05-08T18:04:38.521Z,100917.70
2017-05-08T18:07:05.974Z,100923.41
2017-05-08T18:09:33.410Z,100933.98
2017-05-08T18:12:00.837Z,100932.39
2017-05-08T18:14:28.283Z,100941.41
2017-05-08T18:16:55.797Z,100933.05
2017-05-08T18:19:23.249Z,100939.93
2017-05-08T18:21:50.702Z,100941.09
2017-05-08T18:24:18.138Z,100944.79
2017-05-08T18:26:45.593Z,100946.80
2017-05-08T18:29:13.069Z,100950.92
2017-05-08T18:31:40.518Z,100962.56
2017-05-08T18:34:07.970Z,100955.36
2017-05-08T18:36:35.432Z,100954.33
2017-05-08T18:39:02.897Z,100963.95
2017-05-08T18:41:30.388Z,100965.01
2017-05-08T18:43:57.893Z,100962.36
2017-05-08T18:46:25.340Z,100965.22
2017-05-08T18:48:52.785Z,100970.40
2017-05-08T18:51:20.258Z,100966.69
2017-05-08T18:53:47.695Z,100974.40
2017-05-08T18:56:15.138Z,100972.41
2017-05-08T18:58:42.629Z,100975.05
2017-05-08T19:01:10.059Z,100973.56
2017-05-08T19:03:37.489Z,100974.52
2017-05-08T19:06:04.953Z,100977.89
2017-05-08T19:08:32.391Z,100976.62
2017-05-08T19:10:59.840Z,100981.89
2017-05-08T19:13:27.295Z,100980.20
2017-05-08T19:15:54.734Z,100984.98
2017-05-08T19:18:22.298Z,100980.97
2017-05-08T19:20:49.756Z,100992.06
2017-05-08T19:23:17.199Z,100994.29
2017-05-08T19:25:44.635Z,100989.31
2017-05-08T19:28:12.102Z,100995.23
2017-05-08T19:30:41.505Z,100995.31
2017-05-08T19:33:09.327Z,100998.16
2017-05-08T19:35:36.785Z,101000.16
2017-05-08T19:38:04.226Z,101007.03
2017-05-08T19:40:31.662Z,101009.36
2017-05-08T19:42:59.122Z,101006.72
2017-05-08T19:45:26.552Z,101005.97
2017-05-08T19:47:54.105Z,101018.02
2017-05-08T19:50:21.562Z,101023.61
2017-05-08T19:52:48.994Z,101018.22
2017-05-08T19:55:16.462Z,101024.67
2017-05-08T19:57:43.939Z,101024.77
2017-05-08T20:00:11.387Z,101018.42
2017-05-08T20:02:38.820Z,101026.58
2017-05-08T20:05:06.315Z,101027.84
2017-05-08T20:07:33.778Z,101028.56
2017-05-08T20:10:03.181Z,101030.67
2017-05-08T20:12:30.634Z,101031.92
2017-05-08T20:14:58.097Z,101041.13
2017-05-08T20:17:25.546Z,101040.16
2017-05-08T20:19:52.996Z,101039.39
2017-05-08T20:22:20.422Z,101040.03
2017-05-08T20:24:47.862Z,101041.48
2017-05-08T20:27:15.326Z,101047.61
2017-05-08T20:29:42.758Z,101037.13
2017-05-08T20:32:10.194Z,101043.22
2017-05-08T20:34:37.697Z,101038.45
2017-05-08T20:37:05.174Z,101036.56
2017-05-08T20:39:32.653Z,101038.14
2017-05-08T20:42:00.169Z,101033.80
2017-05-08T20:44:27.639Z,101034.52
2017-05-08T20:46:58.137Z,101039.79
2017-05-08T20:49:25.590Z,101038.09
2017-05-08T20:51:53.046Z,101039.14
2017-05-08T20:54:20.501Z,101035.67
2017-05-08T20:56:47.950Z,101038.09
2017-05-08T20:59:15.418Z,101040.00
2017-05-08T21:01:42.862Z,101035.03
2017-05-08T21:04:10.322Z,101032.80
2017-05-08T21:06:37.766Z,101036.08
2017-05-08T21:09:05.235Z,101032.48
2017-05-08T21:11:32.735Z,101041.67
2017-05-08T21:14:00.170Z,101039.55
2017-05-08T21:16:27.647Z,101038.80
2017-05-08T21:18:55.125Z,101038.89
2017-05-08T21:21:22.594Z,101036.15
2017-05-08T21:23:50.054Z,101034.55
2017-05-08T21:26:18.530Z,101039.20
2017-05-08T21:28:45.974Z,101041.75
2017-05-08T21:31:13.429Z,101037.83
2017-05-08T21:33:40.882Z,101048.48
2017-05-08T21:36:08.383Z,101052.80
2017-05-08T21:38:35.843Z,101050.35
2017-05-08T21:41:03.314Z,101052.97
2017-05-08T21:43:30.792Z,101057.28
2017-05-08T21:45:58.243Z,101055.30
2017-05-08T21:48:25.715Z,101053.59
2017-05-08T21:50:53.222Z,101057.91
2017-05-08T21:53:20.687Z,101058.20
2017-05-08T21:55:48.231Z,101054.38
2017-05-08T21:58:15.726Z,101057.42
2017-05-08T22:00:43.190Z,101054.16
2017-05-08T22:03:10.666Z,101056.45
2017-05-08T22:05:38.106Z,101058.73
2017-05-08T22:08:05.585Z,101065.59
2017-05-08T22:10:33.020Z,101059.45
2017-05-08T22:13:00.474Z,101061.22
2017-05-08T22:15:27.930Z,101063.50
2017-05-08T22:17:55.367Z,101066.34
2017-05-08T22:20:22.846Z,101066.02
2017-05-08T22:22:50.307Z,101069.64
2017-05-08T22:25:17.762Z,101065.80
2017-05-08T22:27:45.218Z,101067.16
2017-05-08T22:30:12.658Z,101070.04
2017-05-08T22:32:40.131Z,101071.73
2017-05-08T22:35:07.621Z,101068.47
2017-05-08T22:37:35.090Z,101068.57
2017-05-08T22:40:02.555Z,101067.20
2017-05-08T22:42:29.986Z,101065.50
2017-05-08T22:44:57.504Z,101064.42
2017-05-08T22:47:24.960Z,101064.94
2017-05-08T22:49:52.417Z,101061.74
2017-05-08T22:52:19.872Z,101064.13
2017-05-08T22:54:47.313Z,101066.96
2017-05-08T22:57:15.754Z,101064.41
2017-05-08T22:59:43.189Z,101069.14
2017-05-08T23:02:10.625Z,101071.14
2017-05-08T23:04:38.075Z,101065.23
2017-05-08T23:07:05.508Z,101060.16
2017-05-08T23:09:33.053Z,101051.09
2017-05-08T23:12:00.523Z,101046.97
2017-05-08T23:14:27.958Z,101052.66
2017-05-08T23:16:55.442Z,101048.21
2017-05-08T23:19:22.879Z,101047.36
2017-05-08T23:21:50.350Z,101048.02
2017-05-08T23:24:17.777Z,101053.70
2017-05-08T23:26:45.205Z,101051.14
2017-05-08T23:29:12.683Z,101047.23
2017-05-08T23:31:40.124Z,101045.62
2017-05-08T23:34:07.588Z,101045.62
2017-05-08T23:36:35.026Z,101033.48
2017-05-08T23:39:02.466Z,101042.23
2017-05-08T23:41:29.935Z,101034.42
2017-05-08T23:43:57.387Z,101030.60
2017-05-08T23:46:24.861Z,101029.20
2017-05-08T23:48:52.313Z,101031.87
2017-05-08T23:51:19.758Z,101035.98
2017-05-08T23:53:47.234Z,101049.84
2017-05-08T23:56:14.667Z,101039.55
2017-05-08T23:58:42.142Z,101033.92
